sensor_id;sensor_type;location;lat;lon;timestamp;P1;durP1;ratioP1;P2;durP2;ratioP2
21420;SDS011;10871;50.144;8.428;2023-04-29T00:00:05;6.20;;;5.57;;
21420;SDS011;10871;50.144;8.428;2023-04-29T00:02:38;5.50;;;4.77;;
21420;SDS011;10871;50.144;8.428;2023-04-29T00:05:05;6.55;;;4.13;;
21420;SDS011;10871;50.144;8.428;2023-04-29T00:07:32;4.82;;;4.40;;
21420;SDS011;10871;50.144;8.428;2023-04-29T00:10:05;5.22;;;3.95;;
21420;SDS011;10871;50.144;8.428;2023-04-29T00:12:32;5.18;;;3.45;;
21420;SDS011;10871;50.144;8.428;2023-04-29T00:14:59;3.85;;;3.33;;
21420;SDS011;10871;50.144;8.428;2023-04-29T00:17:26;4.93;;;3.10;;
21420;SDS011;10871;50.144;8.428;2023-04-29T00:19:53;4.70;;;3.60;;
21420;SDS011;10871;50.144;8.428;2023-04-29T00:22:20;5.40;;;3.28;;
21420;SDS011;10871;50.144;8.428;2023-04-29T00:24:47;3.83;;;2.85;;
21420;SDS011;10871;50.144;8.428;2023-04-29T00:27:14;3.35;;;3.05;;
21420;SDS011;10871;50.144;8.428;2023-04-29T00:29:42;4.15;;;3.00;;
21420;SDS011;10871;50.144;8.428;2023-04-29T00:32:09;3.78;;;2.92;;
21420;SDS011;10871;50.144;8.428;2023-04-29T00:34:35;4.10;;;3.10;;
21420;SDS011;10871;50.144;8.428;2023-04-29T00:37:03;5.32;;;3.00;;
21420;SDS011;10871;50.144;8.428;2023-04-29T00:39:29;3.40;;;3.10;;
21420;SDS011;10871;50.144;8.428;2023-04-29T00:41:56;5.63;;;3.17;;
21420;SDS011;10871;50.144;8.428;2023-04-29T00:44:24;3.17;;;2.42;;
21420;SDS011;10871;50.144;8.428;2023-04-29T00:46:50;3.03;;;2.50;;
21420;SDS011;10871;50.144;8.428;2023-04-29T00:49:18;2.58;;;2.38;;
21420;SDS011;10871;50.144;8.428;2023-04-29T00:51:45;3.85;;;2.65;;
21420;SDS011;10871;50.144;8.428;2023-04-29T00:54:12;4.18;;;2.83;;
21420;SDS011;10871;50.144;8.428;2023-04-29T00:56:39;3.83;;;2.40;;
21420;SDS011;10871;50.144;8.428;2023-04-29T00:59:08;2.60;;;2.40;;
21420;SDS011;10871;50.144;8.428;2023-04-29T01:01:36;5.57;;;2.80;;
21420;SDS011;10871;50.144;8.428;2023-04-29T01:04:02;2.50;;;2.30;;
21420;SDS011;10871;50.144;8.428;2023-04-29T01:09:26;3.67;;;2.65;;
21420;SDS011;10871;50.144;8.428;2023-04-29T01:12:01;3.53;;;2.75;;
21420;SDS011;10871;50.144;8.428;2023-04-29T01:14:33;3.90;;;2.28;;
21420;SDS011;10871;50.144;8.428;2023-04-29T01:17:07;4.28;;;2.08;;
21420;SDS011;10871;50.144;8.428;2023-04-29T01:19:48;2.60;;;2.40;;
21420;SDS011;10871;50.144;8.428;2023-04-29T01:22:16;3.67;;;2.55;;
21420;SDS011;10871;50.144;8.428;2023-04-29T01:24:44;2.92;;;2.72;;
21420;SDS011;10871;50.144;8.428;2023-04-29T01:27:18;3.08;;;2.78;;
21420;SDS011;10871;50.144;8.428;2023-04-29T01:32:33;2.80;;;2.45;;
21420;SDS011;10871;50.144;8.428;2023-04-29T01:35:12;3.30;;;3.00;;
21420;SDS011;10871;50.144;8.428;2023-04-29T01:37:48;3.22;;;2.58;;
21420;SDS011;10871;50.144;8.428;2023-04-29T01:40:25;2.58;;;2.38;;
21420;SDS011;10871;50.144;8.428;2023-04-29T01:43:04;3.72;;;3.10;;
21420;SDS011;10871;50.144;8.428;2023-04-29T01:45:34;3.65;;;2.75;;
21420;SDS011;10871;50.144;8.428;2023-04-29T01:48:03;3.83;;;2.95;;
21420;SDS011;10871;50.144;8.428;2023-04-29T01:50:30;4.05;;;3.08;;
21420;SDS011;10871;50.144;8.428;2023-04-29T01:53:06;4.85;;;3.28;;
21420;SDS011;10871;50.144;8.428;2023-04-29T01:55:33;4.35;;;3.40;;
21420;SDS011;10871;50.144;8.428;2023-04-29T01:58:21;3.70;;;3.40;;
21420;SDS011;10871;50.144;8.428;2023-04-29T02:01:04;5.55;;;3.90;;
21420;SDS011;10871;50.144;8.428;2023-04-29T02:03:34;4.30;;;3.90;;
21420;SDS011;10871;50.144;8.428;2023-04-29T02:06:04;4.03;;;3.70;;
21420;SDS011;10871;50.144;8.428;2023-04-29T02:08:33;4.40;;;4.05;;
21420;SDS011;10871;50.144;8.428;2023-04-29T02:11:00;4.85;;;4.45;;
21420;SDS011;10871;50.144;8.428;2023-04-29T02:13:33;5.55;;;4.85;;
21420;SDS011;10871;50.144;8.428;2023-04-29T02:16:10;4.97;;;4.40;;
21420;SDS011;10871;50.144;8.428;2023-04-29T02:18:41;6.30;;;5.70;;
21420;SDS011;10871;50.144;8.428;2023-04-29T02:21:08;7.80;;;5.90;;
21420;SDS011;10871;50.144;8.428;2023-04-29T02:23:35;7.75;;;6.00;;
21420;SDS011;10871;50.144;8.428;2023-04-29T02:26:01;7.22;;;6.22;;
21420;SDS011;10871;50.144;8.428;2023-04-29T02:28:32;8.85;;;6.70;;
21420;SDS011;10871;50.144;8.428;2023-04-29T02:30:59;11.70;;;7.90;;
21420;SDS011;10871;50.144;8.428;2023-04-29T02:33:26;11.35;;;8.43;;
21420;SDS011;10871;50.144;8.428;2023-04-29T02:35:53;10.38;;;8.68;;
21420;SDS011;10871;50.144;8.428;2023-04-29T02:38:19;9.27;;;7.75;;
21420;SDS011;10871;50.144;8.428;2023-04-29T02:40:46;10.80;;;8.20;;
21420;SDS011;10871;50.144;8.428;2023-04-29T02:43:13;10.75;;;8.35;;
21420;SDS011;10871;50.144;8.428;2023-04-29T02:45:39;10.88;;;9.32;;
21420;SDS011;10871;50.144;8.428;2023-04-29T02:48:07;12.20;;;9.65;;
21420;SDS011;10871;50.144;8.428;2023-04-29T02:50:34;11.85;;;9.20;;
21420;SDS011;10871;50.144;8.428;2023-04-29T02:53:02;12.15;;;9.50;;
21420;SDS011;10871;50.144;8.428;2023-04-29T02:55:29;12.95;;;10.13;;
21420;SDS011;10871;50.144;8.428;2023-04-29T02:58:00;13.15;;;10.35;;
21420;SDS011;10871;50.144;8.428;2023-04-29T03:00:27;12.45;;;10.30;;
21420;SDS011;10871;50.144;8.428;2023-04-29T03:02:53;14.27;;;10.30;;
21420;SDS011;10871;50.144;8.428;2023-04-29T03:05:20;11.27;;;9.82;;
21420;SDS011;10871;50.144;8.428;2023-04-29T03:07:48;11.27;;;9.35;;
21420;SDS011;10871;50.144;8.428;2023-04-29T03:10:16;13.75;;;10.20;;
21420;SDS011;10871;50.144;8.428;2023-04-29T03:12:45;12.15;;;10.23;;
21420;SDS011;10871;50.144;8.428;2023-04-29T03:15:12;13.48;;;11.35;;
21420;SDS011;10871;50.144;8.428;2023-04-29T03:17:39;16.48;;;11.30;;
21420;SDS011;10871;50.144;8.428;2023-04-29T03:20:06;16.08;;;11.60;;
21420;SDS011;10871;50.144;8.428;2023-04-29T03:22:33;13.25;;;11.80;;
21420;SDS011;10871;50.144;8.428;2023-04-29T03:25:00;14.38;;;11.55;;
21420;SDS011;10871;50.144;8.428;2023-04-29T03:27:27;14.05;;;11.35;;
21420;SDS011;10871;50.144;8.428;2023-04-29T03:29:53;15.77;;;11.68;;
21420;SDS011;10871;50.144;8.428;2023-04-29T03:32:20;17.10;;;12.55;;
21420;SDS011;10871;50.144;8.428;2023-04-29T03:34:47;16.52;;;13.10;;
21420;SDS011;10871;50.144;8.428;2023-04-29T03:37:23;17.83;;;14.23;;
21420;SDS011;10871;50.144;8.428;2023-04-29T03:39:57;15.75;;;13.07;;
21420;SDS011;10871;50.144;8.428;2023-04-29T03:42:23;16.65;;;14.35;;
21420;SDS011;10871;50.144;8.428;2023-04-29T03:44:50;17.65;;;14.75;;
21420;SDS011;10871;50.144;8.428;2023-04-29T03:47:17;17.90;;;14.00;;
21420;SDS011;10871;50.144;8.428;2023-04-29T03:49:44;19.23;;;13.95;;
21420;SDS011;10871;50.144;8.428;2023-04-29T03:52:11;17.98;;;14.68;;
21420;SDS011;10871;50.144;8.428;2023-04-29T03:54:39;17.92;;;14.60;;
21420;SDS011;10871;50.144;8.428;2023-04-29T03:57:05;22.30;;;15.93;;
21420;SDS011;10871;50.144;8.428;2023-04-29T03:59:32;23.13;;;16.02;;
21420;SDS011;10871;50.144;8.428;2023-04-29T04:01:59;21.95;;;16.65;;
21420;SDS011;10871;50.144;8.428;2023-04-29T04:04:25;20.85;;;16.48;;
21420;SDS011;10871;50.144;8.428;2023-04-29T04:06:52;25.35;;;17.15;;
21420;SDS011;10871;50.144;8.428;2023-04-29T04:09:23;22.20;;;17.70;;
21420;SDS011;10871;50.144;8.428;2023-04-29T04:11:50;26.88;;;18.38;;
21420;SDS011;10871;50.144;8.428;2023-04-29T04:14:17;25.27;;;18.02;;
21420;SDS011;10871;50.144;8.428;2023-04-29T04:16:44;21.92;;;17.98;;
21420;SDS011;10871;50.144;8.428;2023-04-29T04:19:10;23.80;;;18.55;;
21420;SDS011;10871;50.144;8.428;2023-04-29T04:21:40;23.52;;;18.00;;
21420;SDS011;10871;50.144;8.428;2023-04-29T04:24:09;23.00;;;18.42;;
21420;SDS011;10871;50.144;8.428;2023-04-29T04:26:36;22.38;;;17.52;;
21420;SDS011;10871;50.144;8.428;2023-04-29T04:29:13;22.10;;;17.13;;
21420;SDS011;10871;50.144;8.428;2023-04-29T04:31:55;26.35;;;18.38;;
21420;SDS011;10871;50.144;8.428;2023-04-29T04:34:23;26.52;;;19.33;;
21420;SDS011;10871;50.144;8.428;2023-04-29T04:36:53;21.52;;;17.20;;
21420;SDS011;10871;50.144;8.428;2023-04-29T04:39:20;24.60;;;16.88;;
21420;SDS011;10871;50.144;8.428;2023-04-29T04:41:47;21.13;;;15.88;;
21420;SDS011;10871;50.144;8.428;2023-04-29T04:44:14;20.20;;;15.48;;
21420;SDS011;10871;50.144;8.428;2023-04-29T04:46:58;21.95;;;15.20;;
21420;SDS011;10871;50.144;8.428;2023-04-29T04:49:44;21.23;;;14.10;;
21420;SDS011;10871;50.144;8.428;2023-04-29T04:52:11;20.85;;;13.10;;
21420;SDS011;10871;50.144;8.428;2023-04-29T04:54:48;17.42;;;12.27;;
21420;SDS011;10871;50.144;8.428;2023-04-29T04:57:20;18.35;;;13.20;;
21420;SDS011;10871;50.144;8.428;2023-04-29T04:59:47;16.88;;;12.30;;
21420;SDS011;10871;50.144;8.428;2023-04-29T05:02:14;17.48;;;12.63;;
21420;SDS011;10871;50.144;8.428;2023-04-29T05:04:41;16.05;;;11.32;;
21420;SDS011;10871;50.144;8.428;2023-04-29T05:07:08;17.00;;;11.60;;
21420;SDS011;10871;50.144;8.428;2023-04-29T05:09:54;17.30;;;11.43;;
21420;SDS011;10871;50.144;8.428;2023-04-29T05:12:21;17.42;;;11.35;;
21420;SDS011;10871;50.144;8.428;2023-04-29T05:14:53;14.35;;;10.38;;
21420;SDS011;10871;50.144;8.428;2023-04-29T05:17:20;15.02;;;10.77;;
21420;SDS011;10871;50.144;8.428;2023-04-29T05:19:47;19.60;;;11.63;;
21420;SDS011;10871;50.144;8.428;2023-04-29T05:22:13;15.63;;;10.15;;
21420;SDS011;10871;50.144;8.428;2023-04-29T05:24:40;13.52;;;9.57;;
21420;SDS011;10871;50.144;8.428;2023-04-29T05:27:08;12.77;;;9.35;;
21420;SDS011;10871;50.144;8.428;2023-04-29T05:29:34;16.33;;;9.82;;
21420;SDS011;10871;50.144;8.428;2023-04-29T05:32:01;12.40;;;9.48;;
21420;SDS011;10871;50.144;8.428;2023-04-29T05:34:28;15.65;;;10.07;;
21420;SDS011;10871;50.144;8.428;2023-04-29T05:36:54;14.93;;;9.38;;
21420;SDS011;10871;50.144;8.428;2023-04-29T05:39:23;17.02;;;9.98;;
21420;SDS011;10871;50.144;8.428;2023-04-29T05:42:01;14.52;;;9.68;;
21420;SDS011;10871;50.144;8.428;2023-04-29T05:44:35;13.40;;;9.60;;
21420;SDS011;10871;50.144;8.428;2023-04-29T05:47:02;14.75;;;9.45;;
21420;SDS011;10871;50.144;8.428;2023-04-29T05:49:30;15.43;;;9.60;;
21420;SDS011;10871;50.144;8.428;2023-04-29T05:51:57;13.55;;;9.18;;
21420;SDS011;10871;50.144;8.428;2023-04-29T05:54:24;12.05;;;8.25;;
21420;SDS011;10871;50.144;8.428;2023-04-29T05:56:51;12.70;;;8.75;;
21420;SDS011;10871;50.144;8.428;2023-04-29T05:59:17;13.38;;;8.35;;
21420;SDS011;10871;50.144;8.428;2023-04-29T06:01:49;14.00;;;7.85;;
21420;SDS011;10871;50.144;8.428;2023-04-29T06:04:16;11.90;;;7.68;;
21420;SDS011;10871;50.144;8.428;2023-04-29T06:07:02;10.43;;;7.65;;
21420;SDS011;10871;50.144;8.428;2023-04-29T06:09:54;10.38;;;7.35;;
21420;SDS011;10871;50.144;8.428;2023-04-29T06:12:23;11.48;;;7.90;;
21420;SDS011;10871;50.144;8.428;2023-04-29T06:14:50;11.40;;;7.57;;
21420;SDS011;10871;50.144;8.428;2023-04-29T06:17:18;9.73;;;7.53;;
21420;SDS011;10871;50.144;8.428;2023-04-29T06:19:45;11.50;;;7.78;;
21420;SDS011;10871;50.144;8.428;2023-04-29T06:22:11;13.25;;;8.10;;
21420;SDS011;10871;50.144;8.428;2023-04-29T06:24:46;11.60;;;7.95;;
21420;SDS011;10871;50.144;8.428;2023-04-29T06:27:24;14.02;;;8.07;;
21420;SDS011;10871;50.144;8.428;2023-04-29T06:29:54;10.63;;;8.13;;
21420;SDS011;10871;50.144;8.428;2023-04-29T06:32:21;14.00;;;8.63;;
21420;SDS011;10871;50.144;8.428;2023-04-29T06:34:48;11.20;;;7.35;;
21420;SDS011;10871;50.144;8.428;2023-04-29T06:37:24;10.98;;;7.50;;
21420;SDS011;10871;50.144;8.428;2023-04-29T06:40:05;13.52;;;8.43;;
21420;SDS011;10871;50.144;8.428;2023-04-29T06:42:50;9.75;;;7.55;;
21420;SDS011;10871;50.144;8.428;2023-04-29T06:45:44;12.10;;;8.75;;
21420;SDS011;10871;50.144;8.428;2023-04-29T06:48:20;11.77;;;8.55;;
21420;SDS011;10871;50.144;8.428;2023-04-29T06:50:51;12.80;;;8.18;;
21420;SDS011;10871;50.144;8.428;2023-04-29T06:53:18;13.05;;;8.40;;
21420;SDS011;10871;50.144;8.428;2023-04-29T06:55:44;13.00;;;8.55;;
21420;SDS011;10871;50.144;8.428;2023-04-29T06:58:12;13.90;;;9.27;;
21420;SDS011;10871;50.144;8.428;2023-04-29T07:00:39;13.23;;;8.50;;
21420;SDS011;10871;50.144;8.428;2023-04-29T07:03:06;10.57;;;8.13;;
21420;SDS011;10871;50.144;8.428;2023-04-29T07:05:33;11.95;;;8.07;;
21420;SDS011;10871;50.144;8.428;2023-04-29T07:08:00;10.85;;;7.80;;
21420;SDS011;10871;50.144;8.428;2023-04-29T07:10:27;10.52;;;7.65;;
21420;SDS011;10871;50.144;8.428;2023-04-29T07:12:55;11.45;;;7.05;;
21420;SDS011;10871;50.144;8.428;2023-04-29T07:15:21;9.77;;;7.20;;
21420;SDS011;10871;50.144;8.428;2023-04-29T07:17:48;9.40;;;7.10;;
21420;SDS011;10871;50.144;8.428;2023-04-29T07:20:15;8.93;;;6.95;;
21420;SDS011;10871;50.144;8.428;2023-04-29T07:22:42;8.70;;;7.05;;
21420;SDS011;10871;50.144;8.428;2023-04-29T07:25:09;11.80;;;6.70;;
21420;SDS011;10871;50.144;8.428;2023-04-29T07:27:36;12.55;;;7.20;;
21420;SDS011;10871;50.144;8.428;2023-04-29T07:30:03;9.05;;;6.53;;
21420;SDS011;10871;50.144;8.428;2023-04-29T07:32:30;9.25;;;6.97;;
21420;SDS011;10871;50.144;8.428;2023-04-29T07:35:02;9.75;;;7.13;;
21420;SDS011;10871;50.144;8.428;2023-04-29T07:37:29;10.15;;;6.45;;
21420;SDS011;10871;50.144;8.428;2023-04-29T07:39:55;8.60;;;6.75;;
21420;SDS011;10871;50.144;8.428;2023-04-29T07:42:22;8.75;;;6.78;;
21420;SDS011;10871;50.144;8.428;2023-04-29T07:44:50;10.50;;;7.05;;
21420;SDS011;10871;50.144;8.428;2023-04-29T07:47:17;10.30;;;7.55;;
21420;SDS011;10871;50.144;8.428;2023-04-29T07:49:44;10.77;;;7.53;;
21420;SDS011;10871;50.144;8.428;2023-04-29T07:52:11;10.52;;;7.13;;
21420;SDS011;10871;50.144;8.428;2023-04-29T07:54:37;10.25;;;6.82;;
21420;SDS011;10871;50.144;8.428;2023-04-29T07:57:05;7.90;;;6.10;;
21420;SDS011;10871;50.144;8.428;2023-04-29T07:59:32;9.38;;;6.75;;
21420;SDS011;10871;50.144;8.428;2023-04-29T08:02:00;10.02;;;6.75;;
21420;SDS011;10871;50.144;8.428;2023-04-29T08:04:27;11.38;;;6.97;;
21420;SDS011;10871;50.144;8.428;2023-04-29T08:07:02;8.90;;;6.65;;
21420;SDS011;10871;50.144;8.428;2023-04-29T08:09:36;12.60;;;7.15;;
21420;SDS011;10871;50.144;8.428;2023-04-29T08:12:03;9.93;;;6.57;;
21420;SDS011;10871;50.144;8.428;2023-04-29T08:14:31;7.97;;;6.28;;
21420;SDS011;10871;50.144;8.428;2023-04-29T08:16:58;7.88;;;6.07;;
21420;SDS011;10871;50.144;8.428;2023-04-29T08:19:25;8.55;;;6.70;;
21420;SDS011;10871;50.144;8.428;2023-04-29T08:21:52;9.20;;;7.13;;
21420;SDS011;10871;50.144;8.428;2023-04-29T08:24:18;8.50;;;6.50;;
21420;SDS011;10871;50.144;8.428;2023-04-29T08:26:46;10.07;;;6.80;;
21420;SDS011;10871;50.144;8.428;2023-04-29T08:29:13;9.02;;;6.32;;
21420;SDS011;10871;50.144;8.428;2023-04-29T08:31:40;7.22;;;6.22;;
21420;SDS011;10871;50.144;8.428;2023-04-29T08:34:07;9.50;;;6.15;;
21420;SDS011;10871;50.144;8.428;2023-04-29T08:36:33;7.32;;;6.10;;
21420;SDS011;10871;50.144;8.428;2023-04-29T08:39:00;8.77;;;5.95;;
21420;SDS011;10871;50.144;8.428;2023-04-29T08:41:27;8.07;;;6.40;;
21420;SDS011;10871;50.144;8.428;2023-04-29T08:43:54;7.90;;;6.45;;
21420;SDS011;10871;50.144;8.428;2023-04-29T08:46:23;9.23;;;6.43;;
21420;SDS011;10871;50.144;8.428;2023-04-29T08:48:50;10.13;;;6.70;;
21420;SDS011;10871;50.144;8.428;2023-04-29T08:51:17;8.32;;;7.05;;
21420;SDS011;10871;50.144;8.428;2023-04-29T08:53:44;7.53;;;6.40;;
21420;SDS011;10871;50.144;8.428;2023-04-29T08:56:15;9.60;;;6.72;;
21420;SDS011;10871;50.144;8.428;2023-04-29T08:58:51;9.05;;;6.72;;
21420;SDS011;10871;50.144;8.428;2023-04-29T09:01:20;7.65;;;6.55;;
21420;SDS011;10871;50.144;8.428;2023-04-29T09:06:33;10.27;;;6.70;;
21420;SDS011;10871;50.144;8.428;2023-04-29T09:09:00;10.35;;;7.18;;
21420;SDS011;10871;50.144;8.428;2023-04-29T09:11:28;9.15;;;6.63;;
21420;SDS011;10871;50.144;8.428;2023-04-29T09:13:58;9.93;;;6.82;;
21420;SDS011;10871;50.144;8.428;2023-04-29T09:16:29;10.57;;;7.55;;
21420;SDS011;10871;50.144;8.428;2023-04-29T09:18:56;10.77;;;7.82;;
21420;SDS011;10871;50.144;8.428;2023-04-29T09:21:24;10.13;;;7.30;;
21420;SDS011;10871;50.144;8.428;2023-04-29T09:23:57;10.15;;;7.70;;
21420;SDS011;10871;50.144;8.428;2023-04-29T09:26:24;10.98;;;8.25;;
21420;SDS011;10871;50.144;8.428;2023-04-29T09:31:36;12.90;;;7.75;;
21420;SDS011;10871;50.144;8.428;2023-04-29T09:34:03;11.38;;;7.65;;
21420;SDS011;10871;50.144;8.428;2023-04-29T09:39:03;9.20;;;7.10;;
21420;SDS011;10871;50.144;8.428;2023-04-29T09:41:31;7.85;;;6.20;;
21420;SDS011;10871;50.144;8.428;2023-04-29T09:44:01;9.70;;;6.75;;
21420;SDS011;10871;50.144;8.428;2023-04-29T09:46:31;9.02;;;7.00;;
21420;SDS011;10871;50.144;8.428;2023-04-29T09:48:58;8.27;;;6.93;;
21420;SDS011;10871;50.144;8.428;2023-04-29T09:51:24;9.00;;;6.50;;
21420;SDS011;10871;50.144;8.428;2023-04-29T09:53:51;6.97;;;6.20;;
21420;SDS011;10871;50.144;8.428;2023-04-29T09:56:18;8.35;;;6.78;;
21420;SDS011;10871;50.144;8.428;2023-04-29T09:58:44;7.72;;;6.22;;
21420;SDS011;10871;50.144;8.428;2023-04-29T10:01:11;9.00;;;6.40;;
21420;SDS011;10871;50.144;8.428;2023-04-29T10:03:39;8.00;;;6.63;;
21420;SDS011;10871;50.144;8.428;2023-04-29T10:06:08;6.53;;;5.82;;
21420;SDS011;10871;50.144;8.428;2023-04-29T10:08:35;8.05;;;6.28;;
21420;SDS011;10871;50.144;8.428;2023-04-29T10:11:02;7.68;;;5.63;;
21420;SDS011;10871;50.144;8.428;2023-04-29T10:13:29;6.00;;;5.40;;
21420;SDS011;10871;50.144;8.428;2023-04-29T10:18:36;7.03;;;5.35;;
21420;SDS011;10871;50.144;8.428;2023-04-29T10:21:05;6.07;;;4.97;;
21420;SDS011;10871;50.144;8.428;2023-04-29T10:23:32;5.45;;;4.90;;
21420;SDS011;10871;50.144;8.428;2023-04-29T10:25:59;5.40;;;4.70;;
21420;SDS011;10871;50.144;8.428;2023-04-29T10:28:26;5.68;;;4.95;;
21420;SDS011;10871;50.144;8.428;2023-04-29T10:30:52;5.35;;;4.40;;
21420;SDS011;10871;50.144;8.428;2023-04-29T10:33:19;5.50;;;4.20;;
21420;SDS011;10871;50.144;8.428;2023-04-29T10:35:47;4.60;;;3.90;;
21420;SDS011;10871;50.144;8.428;2023-04-29T10:38:20;4.43;;;4.03;;
21420;SDS011;10871;50.144;8.428;2023-04-29T10:40:48;4.55;;;3.75;;
21420;SDS011;10871;50.144;8.428;2023-04-29T10:43:15;3.50;;;3.20;;
21420;SDS011;10871;50.144;8.428;2023-04-29T10:45:48;3.50;;;3.20;;
21420;SDS011;10871;50.144;8.428;2023-04-29T10:48:14;3.80;;;3.00;;
21420;SDS011;10871;50.144;8.428;2023-04-29T10:53:15;2.88;;;2.55;;
21420;SDS011;10871;50.144;8.428;2023-04-29T10:55:45;2.53;;;2.33;;
21420;SDS011;10871;50.144;8.428;2023-04-29T11:00:57;2.83;;;2.40;;
21420;SDS011;10871;50.144;8.428;2023-04-29T11:06:10;3.33;;;2.58;;
21420;SDS011;10871;50.144;8.428;2023-04-29T11:08:37;3.35;;;2.65;;
21420;SDS011;10871;50.144;8.428;2023-04-29T11:11:06;2.85;;;2.55;;
21420;SDS011;10871;50.144;8.428;2023-04-29T11:13:38;3.53;;;2.60;;
21420;SDS011;10871;50.144;8.428;2023-04-29T11:16:06;3.88;;;3.10;;
21420;SDS011;10871;50.144;8.428;2023-04-29T11:18:34;4.18;;;3.00;;
21420;SDS011;10871;50.144;8.428;2023-04-29T11:23:33;7.20;;;2.85;;
21420;SDS011;10871;50.144;8.428;2023-04-29T11:26:01;2.67;;;2.47;;
21420;SDS011;10871;50.144;8.428;2023-04-29T11:28:29;2.90;;;2.60;;
21420;SDS011;10871;50.144;8.428;2023-04-29T11:30:56;3.78;;;3.10;;
21420;SDS011;10871;50.144;8.428;2023-04-29T11:33:23;3.55;;;2.95;;
21420;SDS011;10871;50.144;8.428;2023-04-29T11:35:50;3.05;;;2.38;;
21420;SDS011;10871;50.144;8.428;2023-04-29T11:38:17;2.80;;;2.33;;
21420;SDS011;10871;50.144;8.428;2023-04-29T11:40:50;4.43;;;2.85;;
21420;SDS011;10871;50.144;8.428;2023-04-29T11:43:17;5.22;;;2.95;;
21420;SDS011;10871;50.144;8.428;2023-04-29T11:45:44;3.03;;;2.70;;
21420;SDS011;10871;50.144;8.428;2023-04-29T11:48:18;3.45;;;2.63;;
21420;SDS011;10871;50.144;8.428;2023-04-29T11:50:46;3.28;;;2.95;;
21420;SDS011;10871;50.144;8.428;2023-04-29T11:53:14;3.47;;;2.83;;
21420;SDS011;10871;50.144;8.428;2023-04-29T11:55:41;3.10;;;2.80;;
21420;SDS011;10871;50.144;8.428;2023-04-29T11:58:08;4.30;;;3.58;;
21420;SDS011;10871;50.144;8.428;2023-04-29T12:00:34;3.80;;;3.15;;
21420;SDS011;10871;50.144;8.428;2023-04-29T12:06:00;4.57;;;3.70;;
21420;SDS011;10871;50.144;8.428;2023-04-29T12:08:29;5.10;;;3.50;;
21420;SDS011;10871;50.144;8.428;2023-04-29T12:10:56;4.28;;;3.80;;
21420;SDS011;10871;50.144;8.428;2023-04-29T12:13:23;4.22;;;3.83;;
21420;SDS011;10871;50.144;8.428;2023-04-29T12:15:50;4.05;;;3.65;;
21420;SDS011;10871;50.144;8.428;2023-04-29T12:18:18;4.40;;;4.00;;
21420;SDS011;10871;50.144;8.428;2023-04-29T12:20:45;3.80;;;3.47;;
21420;SDS011;10871;50.144;8.428;2023-04-29T12:23:18;4.35;;;3.80;;
21420;SDS011;10871;50.144;8.428;2023-04-29T12:25:51;4.75;;;4.20;;
21420;SDS011;10871;50.144;8.428;2023-04-29T12:28:19;4.13;;;3.72;;
21420;SDS011;10871;50.144;8.428;2023-04-29T12:30:46;6.95;;;4.70;;
21420;SDS011;10871;50.144;8.428;2023-04-29T12:33:15;5.20;;;4.70;;
21420;SDS011;10871;50.144;8.428;2023-04-29T12:35:43;5.07;;;4.38;;
21420;SDS011;10871;50.144;8.428;2023-04-29T12:38:14;4.53;;;4.13;;
21420;SDS011;10871;50.144;8.428;2023-04-29T12:40:43;4.72;;;4.32;;
21420;SDS011;10871;50.144;8.428;2023-04-29T12:43:09;3.85;;;3.55;;
21420;SDS011;10871;50.144;8.428;2023-04-29T12:45:37;5.53;;;4.88;;
21420;SDS011;10871;50.144;8.428;2023-04-29T12:48:03;4.43;;;4.00;;
21420;SDS011;10871;50.144;8.428;2023-04-29T12:50:37;4.50;;;4.10;;
21420;SDS011;10871;50.144;8.428;2023-04-29T12:53:04;4.50;;;4.07;;
21420;SDS011;10871;50.144;8.428;2023-04-29T12:55:32;4.47;;;4.07;;
21420;SDS011;10871;50.144;8.428;2023-04-29T12:58:00;4.28;;;3.88;;
21420;SDS011;10871;50.144;8.428;2023-04-29T13:00:27;4.38;;;3.97;;
21420;SDS011;10871;50.144;8.428;2023-04-29T13:02:53;4.75;;;4.35;;
21420;SDS011;10871;50.144;8.428;2023-04-29T13:05:20;4.45;;;4.05;;
21420;SDS011;10871;50.144;8.428;2023-04-29T13:07:48;5.28;;;4.78;;
21420;SDS011;10871;50.144;8.428;2023-04-29T13:10:17;4.85;;;4.43;;
21420;SDS011;10871;50.144;8.428;2023-04-29T13:12:43;5.25;;;4.75;;
21420;SDS011;10871;50.144;8.428;2023-04-29T13:15:10;5.63;;;4.63;;
21420;SDS011;10871;50.144;8.428;2023-04-29T13:17:37;5.43;;;4.93;;
21420;SDS011;10871;50.144;8.428;2023-04-29T13:20:04;5.10;;;4.53;;
21420;SDS011;10871;50.144;8.428;2023-04-29T13:22:31;4.70;;;4.30;;
21420;SDS011;10871;50.144;8.428;2023-04-29T13:24:58;7.35;;;4.55;;
21420;SDS011;10871;50.144;8.428;2023-04-29T13:27:25;4.63;;;4.22;;
21420;SDS011;10871;50.144;8.428;2023-04-29T13:29:52;4.45;;;4.05;;
21420;SDS011;10871;50.144;8.428;2023-04-29T13:32:18;5.18;;;4.38;;
21420;SDS011;10871;50.144;8.428;2023-04-29T13:34:49;4.68;;;4.28;;
21420;SDS011;10871;50.144;8.428;2023-04-29T13:37:16;6.03;;;4.30;;
21420;SDS011;10871;50.144;8.428;2023-04-29T13:39:42;4.60;;;4.20;;
21420;SDS011;10871;50.144;8.428;2023-04-29T13:42:14;5.65;;;4.43;;
21420;SDS011;10871;50.144;8.428;2023-04-29T13:44:41;4.18;;;3.88;;
21420;SDS011;10871;50.144;8.428;2023-04-29T13:47:24;4.75;;;4.30;;
21420;SDS011;10871;50.144;8.428;2023-04-29T13:49:55;4.30;;;3.90;;
21420;SDS011;10871;50.144;8.428;2023-04-29T13:52:25;4.07;;;3.67;;
21420;SDS011;10871;50.144;8.428;2023-04-29T13:55:11;4.75;;;4.35;;
21420;SDS011;10871;50.144;8.428;2023-04-29T13:57:41;5.22;;;4.72;;
21420;SDS011;10871;50.144;8.428;2023-04-29T14:00:11;5.53;;;4.53;;
21420;SDS011;10871;50.144;8.428;2023-04-29T14:02:58;5.65;;;5.05;;
21420;SDS011;10871;50.144;8.428;2023-04-29T14:05:25;5.00;;;4.60;;
21420;SDS011;10871;50.144;8.428;2023-04-29T14:07:52;5.63;;;4.82;;
21420;SDS011;10871;50.144;8.428;2023-04-29T14:10:19;5.38;;;4.88;;
21420;SDS011;10871;50.144;8.428;2023-04-29T14:12:46;6.45;;;5.50;;
21420;SDS011;10871;50.144;8.428;2023-04-29T14:15:14;5.57;;;5.07;;
21420;SDS011;10871;50.144;8.428;2023-04-29T14:17:41;7.18;;;6.05;;
21420;SDS011;10871;50.144;8.428;2023-04-29T14:20:08;7.05;;;6.35;;
21420;SDS011;10871;50.144;8.428;2023-04-29T14:22:36;6.80;;;6.10;;
21420;SDS011;10871;50.144;8.428;2023-04-29T14:25:03;7.50;;;6.50;;
21420;SDS011;10871;50.144;8.428;2023-04-29T14:27:29;8.32;;;6.90;;
21420;SDS011;10871;50.144;8.428;2023-04-29T14:29:56;7.07;;;6.07;;
21420;SDS011;10871;50.144;8.428;2023-04-29T14:32:23;6.90;;;6.20;;
21420;SDS011;10871;50.144;8.428;2023-04-29T14:34:49;7.05;;;6.35;;
21420;SDS011;10871;50.144;8.428;2023-04-29T14:37:16;7.90;;;6.43;;
21420;SDS011;10871;50.144;8.428;2023-04-29T14:39:43;7.18;;;6.40;;
21420;SDS011;10871;50.144;8.428;2023-04-29T14:42:09;9.95;;;8.13;;
21420;SDS011;10871;50.144;8.428;2023-04-29T14:44:36;9.75;;;7.78;;
21420;SDS011;10871;50.144;8.428;2023-04-29T14:47:03;10.60;;;8.70;;
21420;SDS011;10871;50.144;8.428;2023-04-29T14:49:30;9.63;;;8.27;;
21420;SDS011;10871;50.144;8.428;2023-04-29T14:51:57;12.88;;;8.48;;
21420;SDS011;10871;50.144;8.428;2023-04-29T14:54:23;11.77;;;9.45;;
21420;SDS011;10871;50.144;8.428;2023-04-29T14:56:53;11.95;;;8.88;;
21420;SDS011;10871;50.144;8.428;2023-04-29T14:59:19;12.18;;;8.70;;
21420;SDS011;10871;50.144;8.428;2023-04-29T15:01:47;10.52;;;8.73;;
21420;SDS011;10871;50.144;8.428;2023-04-29T15:04:15;11.52;;;9.27;;
21420;SDS011;10871;50.144;8.428;2023-04-29T15:06:41;11.20;;;9.55;;
21420;SDS011;10871;50.144;8.428;2023-04-29T15:09:08;11.90;;;9.50;;
21420;SDS011;10871;50.144;8.428;2023-04-29T15:11:35;12.98;;;10.15;;
21420;SDS011;10871;50.144;8.428;2023-04-29T15:14:02;13.55;;;9.90;;
21420;SDS011;10871;50.144;8.428;2023-04-29T15:16:29;13.88;;;9.93;;
21420;SDS011;10871;50.144;8.428;2023-04-29T15:18:55;12.77;;;9.68;;